sensor_id;sensor_type;location;lat;lon;timestamp;temperature;humidity
39931;DHT22;26635;-35.248;149.138;2023-05-14T00:00:28;11.50;91.20
39931;DHT22;26635;-35.248;149.138;2023-05-14T00:02:59;11.60;90.50
39931;DHT22;26635;-35.248;149.138;2023-05-14T00:05:29;11.70;90.20
39931;DHT22;26635;-35.248;149.138;2023-05-14T00:08:02;11.80;90.20
39931;DHT22;26635;-35.248;149.138;2023-05-14T00:10:33;11.90;90.00
39931;DHT22;26635;-35.248;149.138;2023-05-14T00:13:03;12.10;89.10
39931;DHT22;26635;-35.248;149.138;2023-05-14T00:15:33;12.20;88.30
39931;DHT22;26635;-35.248;149.138;2023-05-14T00:18:04;12.40;88.80
39931;DHT22;26635;-35.248;149.138;2023-05-14T00:20:35;12.60;87.60
39931;DHT22;26635;-35.248;149.138;2023-05-14T00:23:05;12.70;87.30
39931;DHT22;26635;-35.248;149.138;2023-05-14T00:25:36;12.90;86.50
39931;DHT22;26635;-35.248;149.138;2023-05-14T00:28:07;13.10;85.10
39931;DHT22;26635;-35.248;149.138;2023-05-14T00:30:37;13.20;84.50
39931;DHT22;26635;-35.248;149.138;2023-05-14T00:33:12;13.40;85.20
39931;DHT22;26635;-35.248;149.138;2023-05-14T00:35:43;13.50;84.20
39931;DHT22;26635;-35.248;149.138;2023-05-14T00:38:16;13.60;83.70
39931;DHT22;26635;-35.248;149.138;2023-05-14T00:40:56;13.80;83.00
39931;DHT22;26635;-35.248;149.138;2023-05-14T00:43:27;14.00;82.70
39931;DHT22;26635;-35.248;149.138;2023-05-14T00:45:58;14.10;82.40
39931;DHT22;26635;-35.248;149.138;2023-05-14T00:48:30;14.20;82.50
39931;DHT22;26635;-35.248;149.138;2023-05-14T00:51:01;14.30;81.00
39931;DHT22;26635;-35.248;149.138;2023-05-14T00:53:32;14.40;81.00
39931;DHT22;26635;-35.248;149.138;2023-05-14T00:56:02;14.50;81.70
39931;DHT22;26635;-35.248;149.138;2023-05-14T00:58:32;14.50;80.60
39931;DHT22;26635;-35.248;149.138;2023-05-14T01:01:05;14.60;80.90
39931;DHT22;26635;-35.248;149.138;2023-05-14T01:03:35;14.60;80.80
39931;DHT22;26635;-35.248;149.138;2023-05-14T01:11:57;14.50;81.40
39931;DHT22;26635;-35.248;149.138;2023-05-14T01:14:53;14.40;81.10
39931;DHT22;26635;-35.248;149.138;2023-05-14T01:17:27;14.30;81.40
39931;DHT22;26635;-35.248;149.138;2023-05-14T01:19:59;14.40;80.60
39931;DHT22;26635;-35.248;149.138;2023-05-14T01:22:30;14.60;81.50
39931;DHT22;26635;-35.248;149.138;2023-05-14T01:25:01;14.70;79.90
39931;DHT22;26635;-35.248;149.138;2023-05-14T01:28:05;14.90;80.50
39931;DHT22;26635;-35.248;149.138;2023-05-14T01:30:34;15.00;79.20
39931;DHT22;26635;-35.248;149.138;2023-05-14T01:33:12;15.20;79.40
39931;DHT22;26635;-35.248;149.138;2023-05-14T01:35:43;15.30;78.50
39931;DHT22;26635;-35.248;149.138;2023-05-14T01:38:15;15.40;77.20
39931;DHT22;26635;-35.248;149.138;2023-05-14T01:40:55;15.50;76.60
39931;DHT22;26635;-35.248;149.138;2023-05-14T01:43:30;15.60;78.00
39931;DHT22;26635;-35.248;149.138;2023-05-14T01:46:00;15.70;77.40
39931;DHT22;26635;-35.248;149.138;2023-05-14T01:48:34;15.80;75.10
39931;DHT22;26635;-35.248;149.138;2023-05-14T01:51:07;15.70;76.10
39931;DHT22;26635;-35.248;149.138;2023-05-14T01:53:37;15.50;76.30
39931;DHT22;26635;-35.248;149.138;2023-05-14T01:56:08;15.50;77.00
39931;DHT22;26635;-35.248;149.138;2023-05-14T01:58:38;15.40;77.30
39931;DHT22;26635;-35.248;149.138;2023-05-14T02:01:09;15.50;77.00
39931;DHT22;26635;-35.248;149.138;2023-05-14T02:03:40;15.60;77.60
39931;DHT22;26635;-35.248;149.138;2023-05-14T02:06:10;15.70;77.60
39931;DHT22;26635;-35.248;149.138;2023-05-14T02:08:41;15.70;75.60
39931;DHT22;26635;-35.248;149.138;2023-05-14T02:11:11;15.80;75.70
39931;DHT22;26635;-35.248;149.138;2023-05-14T02:13:42;15.80;77.60
39931;DHT22;26635;-35.248;149.138;2023-05-14T02:16:12;16.00;77.20
39931;DHT22;26635;-35.248;149.138;2023-05-14T02:18:42;16.10;76.50
39931;DHT22;26635;-35.248;149.138;2023-05-14T02:21:12;16.30;75.00
39931;DHT22;26635;-35.248;149.138;2023-05-14T02:23:43;16.40;75.50
39931;DHT22;26635;-35.248;149.138;2023-05-14T02:26:13;16.60;74.50
39931;DHT22;26635;-35.248;149.138;2023-05-14T02:28:43;16.60;74.50
39931;DHT22;26635;-35.248;149.138;2023-05-14T02:31:14;16.70;73.90
39931;DHT22;26635;-35.248;149.138;2023-05-14T02:33:47;16.70;72.10
39931;DHT22;26635;-35.248;149.138;2023-05-14T02:36:17;16.80;71.20
39931;DHT22;26635;-35.248;149.138;2023-05-14T02:38:48;16.80;72.20
39931;DHT22;26635;-35.248;149.138;2023-05-14T02:41:18;16.80;73.50
39931;DHT22;26635;-35.248;149.138;2023-05-14T02:43:50;16.90;72.20
39931;DHT22;26635;-35.248;149.138;2023-05-14T02:46:21;17.00;74.10
39931;DHT22;26635;-35.248;149.138;2023-05-14T02:48:51;17.00;72.60
39931;DHT22;26635;-35.248;149.138;2023-05-14T02:51:22;17.10;72.20
39931;DHT22;26635;-35.248;149.138;2023-05-14T02:53:52;17.20;73.30
39931;DHT22;26635;-35.248;149.138;2023-05-14T02:56:22;17.30;71.50
39931;DHT22;26635;-35.248;149.138;2023-05-14T02:58:52;17.30;72.40
39931;DHT22;26635;-35.248;149.138;2023-05-14T03:01:23;17.40;71.50
39931;DHT22;26635;-35.248;149.138;2023-05-14T03:03:54;17.50;70.30
39931;DHT22;26635;-35.248;149.138;2023-05-14T03:06:24;17.60;70.10
39931;DHT22;26635;-35.248;149.138;2023-05-14T03:08:55;17.70;69.70
39931;DHT22;26635;-35.248;149.138;2023-05-14T03:11:25;17.80;69.30
39931;DHT22;26635;-35.248;149.138;2023-05-14T03:13:55;17.70;68.20
39931;DHT22;26635;-35.248;149.138;2023-05-14T03:16:26;17.40;67.10
39931;DHT22;26635;-35.248;149.138;2023-05-14T03:18:56;17.20;68.00
39931;DHT22;26635;-35.248;149.138;2023-05-14T03:21:26;16.90;68.80
39931;DHT22;26635;-35.248;149.138;2023-05-14T03:23:57;16.70;68.80
39931;DHT22;26635;-35.248;149.138;2023-05-14T03:26:27;16.40;68.20
39931;DHT22;26635;-35.248;149.138;2023-05-14T03:28:57;16.20;68.40
39931;DHT22;26635;-35.248;149.138;2023-05-14T03:31:30;16.10;69.80
39931;DHT22;26635;-35.248;149.138;2023-05-14T03:34:00;16.00;71.10
39931;DHT22;26635;-35.248;149.138;2023-05-14T03:36:31;15.90;73.00
39931;DHT22;26635;-35.248;149.138;2023-05-14T03:39:02;15.80;73.40
39931;DHT22;26635;-35.248;149.138;2023-05-14T03:41:35;15.80;72.30
39931;DHT22;26635;-35.248;149.138;2023-05-14T03:44:06;15.90;71.50
39931;DHT22;26635;-35.248;149.138;2023-05-14T03:46:36;15.80;71.70
39931;DHT22;26635;-35.248;149.138;2023-05-14T03:49:07;15.80;71.40
39931;DHT22;26635;-35.248;149.138;2023-05-14T03:51:38;15.80;72.50
39931;DHT22;26635;-35.248;149.138;2023-05-14T03:54:09;15.90;70.50
39931;DHT22;26635;-35.248;149.138;2023-05-14T03:56:40;15.90;70.30
39931;DHT22;26635;-35.248;149.138;2023-05-14T03:59:10;15.90;70.00
39931;DHT22;26635;-35.248;149.138;2023-05-14T04:01:42;15.80;70.40
39931;DHT22;26635;-35.248;149.138;2023-05-14T04:04:16;15.70;70.20
39931;DHT22;26635;-35.248;149.138;2023-05-14T04:06:46;15.60;69.50
39931;DHT22;26635;-35.248;149.138;2023-05-14T04:09:17;15.60;69.70
39931;DHT22;26635;-35.248;149.138;2023-05-14T04:11:47;15.60;67.00
39931;DHT22;26635;-35.248;149.138;2023-05-14T04:14:17;15.70;66.30
39931;DHT22;26635;-35.248;149.138;2023-05-14T04:16:48;15.70;66.30
39931;DHT22;26635;-35.248;149.138;2023-05-14T04:19:19;15.60;66.10
39931;DHT22;26635;-35.248;149.138;2023-05-14T04:21:52;15.60;66.60
39931;DHT22;26635;-35.248;149.138;2023-05-14T04:24:23;15.50;67.70
39931;DHT22;26635;-35.248;149.138;2023-05-14T04:26:54;15.40;68.40
39931;DHT22;26635;-35.248;149.138;2023-05-14T04:29:25;15.30;69.20
39931;DHT22;26635;-35.248;149.138;2023-05-14T04:31:55;15.20;70.10
39931;DHT22;26635;-35.248;149.138;2023-05-14T04:34:28;15.20;70.80
39931;DHT22;26635;-35.248;149.138;2023-05-14T04:37:02;15.10;71.20
39931;DHT22;26635;-35.248;149.138;2023-05-14T04:39:33;15.10;72.20
39931;DHT22;26635;-35.248;149.138;2023-05-14T04:42:04;15.10;72.70
39931;DHT22;26635;-35.248;149.138;2023-05-14T04:44:35;15.20;73.00
39931;DHT22;26635;-35.248;149.138;2023-05-14T04:47:06;15.20;72.40
39931;DHT22;26635;-35.248;149.138;2023-05-14T04:49:36;15.30;70.20
39931;DHT22;26635;-35.248;149.138;2023-05-14T04:52:06;15.40;70.60
39931;DHT22;26635;-35.248;149.138;2023-05-14T04:54:37;15.50;70.70
39931;DHT22;26635;-35.248;149.138;2023-05-14T04:57:07;15.70;70.80
39931;DHT22;26635;-35.248;149.138;2023-05-14T04:59:38;15.80;68.60
39931;DHT22;26635;-35.248;149.138;2023-05-14T05:02:09;15.90;67.90
39931;DHT22;26635;-35.248;149.138;2023-05-14T05:04:39;16.10;68.10
39931;DHT22;26635;-35.248;149.138;2023-05-14T05:07:10;16.20;67.10
39931;DHT22;26635;-35.248;149.138;2023-05-14T05:09:43;16.30;68.00
39931;DHT22;26635;-35.248;149.138;2023-05-14T05:12:13;16.30;67.90
39931;DHT22;26635;-35.248;149.138;2023-05-14T05:14:44;16.20;67.70
39931;DHT22;26635;-35.248;149.138;2023-05-14T05:17:14;16.20;68.20
39931;DHT22;26635;-35.248;149.138;2023-05-14T05:19:45;16.10;67.50
39931;DHT22;26635;-35.248;149.138;2023-05-14T05:22:15;16.10;68.60
39931;DHT22;26635;-35.248;149.138;2023-05-14T05:24:45;16.00;68.00
39931;DHT22;26635;-35.248;149.138;2023-05-14T05:27:16;16.00;69.60
39931;DHT22;26635;-35.248;149.138;2023-05-14T05:29:47;16.10;68.90
39931;DHT22;26635;-35.248;149.138;2023-05-14T05:32:17;16.10;69.30
39931;DHT22;26635;-35.248;149.138;2023-05-14T05:34:48;16.10;67.70
39931;DHT22;26635;-35.248;149.138;2023-05-14T05:37:20;16.10;69.00
39931;DHT22;26635;-35.248;149.138;2023-05-14T05:39:50;16.20;69.30
39931;DHT22;26635;-35.248;149.138;2023-05-14T05:42:21;16.20;68.80
39931;DHT22;26635;-35.248;149.138;2023-05-14T05:44:51;16.20;68.60
39931;DHT22;26635;-35.248;149.138;2023-05-14T05:47:22;16.20;68.50
39931;DHT22;26635;-35.248;149.138;2023-05-14T05:49:52;16.20;68.20
39931;DHT22;26635;-35.248;149.138;2023-05-14T05:52:22;16.20;68.90
39931;DHT22;26635;-35.248;149.138;2023-05-14T05:54:53;16.20;67.80
39931;DHT22;26635;-35.248;149.138;2023-05-14T05:57:23;16.20;68.20
39931;DHT22;26635;-35.248;149.138;2023-05-14T05:59:55;16.10;68.30
39931;DHT22;26635;-35.248;149.138;2023-05-14T06:02:26;16.10;67.20
39931;DHT22;26635;-35.248;149.138;2023-05-14T06:04:57;16.00;68.40
39931;DHT22;26635;-35.248;149.138;2023-05-14T06:07:27;16.00;68.40
39931;DHT22;26635;-35.248;149.138;2023-05-14T06:09:57;15.90;68.70
39931;DHT22;26635;-35.248;149.138;2023-05-14T06:12:27;15.80;69.40
39931;DHT22;26635;-35.248;149.138;2023-05-14T06:14:58;15.80;69.50
39931;DHT22;26635;-35.248;149.138;2023-05-14T06:17:28;15.70;69.30
39931;DHT22;26635;-35.248;149.138;2023-05-14T06:19:58;15.60;69.70
39931;DHT22;26635;-35.248;149.138;2023-05-14T06:22:29;15.60;69.30
39931;DHT22;26635;-35.248;149.138;2023-05-14T06:24:59;15.50;69.70
39931;DHT22;26635;-35.248;149.138;2023-05-14T06:27:29;15.50;70.80
39931;DHT22;26635;-35.248;149.138;2023-05-14T06:30:00;15.40;69.70
39931;DHT22;26635;-35.248;149.138;2023-05-14T06:32:30;15.40;70.40
39931;DHT22;26635;-35.248;149.138;2023-05-14T06:35:00;15.30;71.00
39931;DHT22;26635;-35.248;149.138;2023-05-14T06:37:31;15.20;71.00
39931;DHT22;26635;-35.248;149.138;2023-05-14T06:40:01;15.20;71.20
39931;DHT22;26635;-35.248;149.138;2023-05-14T06:42:32;15.10;71.30
39931;DHT22;26635;-35.248;149.138;2023-05-14T06:45:03;15.00;71.90
39931;DHT22;26635;-35.248;149.138;2023-05-14T06:47:34;14.90;72.00
39931;DHT22;26635;-35.248;149.138;2023-05-14T06:50:05;14.80;72.30
39931;DHT22;26635;-35.248;149.138;2023-05-14T06:52:37;14.70;72.80
39931;DHT22;26635;-35.248;149.138;2023-05-14T06:55:08;14.60;73.40
39931;DHT22;26635;-35.248;149.138;2023-05-14T06:57:39;14.50;73.60
39931;DHT22;26635;-35.248;149.138;2023-05-14T07:00:09;14.40;73.60
39931;DHT22;26635;-35.248;149.138;2023-05-14T07:02:40;14.30;74.90
39931;DHT22;26635;-35.248;149.138;2023-05-14T07:05:10;14.10;75.80
39931;DHT22;26635;-35.248;149.138;2023-05-14T07:07:41;14.00;76.10
39931;DHT22;26635;-35.248;149.138;2023-05-14T07:10:12;13.90;76.70
39931;DHT22;26635;-35.248;149.138;2023-05-14T07:12:42;13.80;77.70
39931;DHT22;26635;-35.248;149.138;2023-05-14T07:15:13;13.70;79.10
39931;DHT22;26635;-35.248;149.138;2023-05-14T07:17:44;13.60;79.20
39931;DHT22;26635;-35.248;149.138;2023-05-14T07:20:15;13.40;78.90
39931;DHT22;26635;-35.248;149.138;2023-05-14T07:22:45;13.30;79.40
39931;DHT22;26635;-35.248;149.138;2023-05-14T07:25:15;13.20;80.00
39931;DHT22;26635;-35.248;149.138;2023-05-14T07:27:46;13.10;81.50
39931;DHT22;26635;-35.248;149.138;2023-05-14T07:30:16;12.90;81.00
39931;DHT22;26635;-35.248;149.138;2023-05-14T07:32:47;12.80;82.20
39931;DHT22;26635;-35.248;149.138;2023-05-14T07:35:18;12.80;82.00
39931;DHT22;26635;-35.248;149.138;2023-05-14T07:37:48;12.70;82.30
39931;DHT22;26635;-35.248;149.138;2023-05-14T07:40:19;12.60;82.50
39931;DHT22;26635;-35.248;149.138;2023-05-14T07:42:54;12.50;83.40
39931;DHT22;26635;-35.248;149.138;2023-05-14T07:49:07;12.30;84.00
39931;DHT22;26635;-35.248;149.138;2023-05-14T07:51:39;12.20;84.20
39931;DHT22;26635;-35.248;149.138;2023-05-14T07:54:10;12.10;84.20
39931;DHT22;26635;-35.248;149.138;2023-05-14T07:56:41;12.10;84.60
39931;DHT22;26635;-35.248;149.138;2023-05-14T07:59:12;12.00;84.70
39931;DHT22;26635;-35.248;149.138;2023-05-14T08:01:42;11.90;85.30
39931;DHT22;26635;-35.248;149.138;2023-05-14T08:04:12;11.80;86.20
39931;DHT22;26635;-35.248;149.138;2023-05-14T08:06:45;11.80;86.30
39931;DHT22;26635;-35.248;149.138;2023-05-14T08:09:16;11.80;87.10
39931;DHT22;26635;-35.248;149.138;2023-05-14T08:11:47;11.70;86.80
39931;DHT22;26635;-35.248;149.138;2023-05-14T08:14:18;11.70;87.10
39931;DHT22;26635;-35.248;149.138;2023-05-14T08:16:50;11.70;87.20
39931;DHT22;26635;-35.248;149.138;2023-05-14T08:19:23;11.60;87.20
39931;DHT22;26635;-35.248;149.138;2023-05-14T08:21:54;11.60;87.40
39931;DHT22;26635;-35.248;149.138;2023-05-14T08:24:25;11.60;87.40
39931;DHT22;26635;-35.248;149.138;2023-05-14T08:26:55;11.50;86.70
39931;DHT22;26635;-35.248;149.138;2023-05-14T08:29:25;11.50;87.50
39931;DHT22;26635;-35.248;149.138;2023-05-14T08:31:55;11.40;88.70
39931;DHT22;26635;-35.248;149.138;2023-05-14T08:34:38;11.30;89.00
39931;DHT22;26635;-35.248;149.138;2023-05-14T08:37:10;11.30;88.70
39931;DHT22;26635;-35.248;149.138;2023-05-14T08:39:41;11.20;88.80
39931;DHT22;26635;-35.248;149.138;2023-05-14T08:42:13;11.20;89.10
39931;DHT22;26635;-35.248;149.138;2023-05-14T08:44:48;11.10;89.30
39931;DHT22;26635;-35.248;149.138;2023-05-14T08:47:23;11.10;89.60
39931;DHT22;26635;-35.248;149.138;2023-05-14T08:50:00;11.00;90.10
39931;DHT22;26635;-35.248;149.138;2023-05-14T08:52:33;11.00;90.40
39931;DHT22;26635;-35.248;149.138;2023-05-14T08:55:04;10.90;90.30
39931;DHT22;26635;-35.248;149.138;2023-05-14T08:57:35;10.90;90.20
39931;DHT22;26635;-35.248;149.138;2023-05-14T09:00:06;10.80;90.30
39931;DHT22;26635;-35.248;149.138;2023-05-14T09:02:42;10.80;90.20
39931;DHT22;26635;-35.248;149.138;2023-05-14T09:05:14;10.80;90.10
39931;DHT22;26635;-35.248;149.138;2023-05-14T09:07:46;10.70;90.30
39931;DHT22;26635;-35.248;149.138;2023-05-14T09:10:17;10.70;90.70
39931;DHT22;26635;-35.248;149.138;2023-05-14T09:12:49;10.60;90.50
39931;DHT22;26635;-35.248;149.138;2023-05-14T09:15:20;10.60;90.40
39931;DHT22;26635;-35.248;149.138;2023-05-14T09:17:54;10.60;90.50
39931;DHT22;26635;-35.248;149.138;2023-05-14T09:20:25;10.50;90.60
39931;DHT22;26635;-35.248;149.138;2023-05-14T09:22:57;10.50;90.90
39931;DHT22;26635;-35.248;149.138;2023-05-14T09:25:31;10.40;91.00
39931;DHT22;26635;-35.248;149.138;2023-05-14T09:28:05;10.40;91.20
39931;DHT22;26635;-35.248;149.138;2023-05-14T09:30:37;10.40;90.90
39931;DHT22;26635;-35.248;149.138;2023-05-14T09:33:07;10.40;91.10
39931;DHT22;26635;-35.248;149.138;2023-05-14T09:35:39;10.40;91.00
39931;DHT22;26635;-35.248;149.138;2023-05-14T09:38:11;10.30;91.10
39931;DHT22;26635;-35.248;149.138;2023-05-14T09:40:42;10.40;91.00
39931;DHT22;26635;-35.248;149.138;2023-05-14T09:43:12;10.30;91.20
39931;DHT22;26635;-35.248;149.138;2023-05-14T09:45:43;10.40;92.00
39931;DHT22;26635;-35.248;149.138;2023-05-14T09:48:14;10.40;91.70
39931;DHT22;26635;-35.248;149.138;2023-05-14T09:50:45;10.40;91.40
39931;DHT22;26635;-35.248;149.138;2023-05-14T09:53:16;10.40;92.10
39931;DHT22;26635;-35.248;149.138;2023-05-14T09:55:47;10.40;91.70
39931;DHT22;26635;-35.248;149.138;2023-05-14T09:58:17;10.40;91.50
39931;DHT22;26635;-35.248;149.138;2023-05-14T10:00:48;10.40;91.50
39931;DHT22;26635;-35.248;149.138;2023-05-14T10:03:21;10.40;91.50
39931;DHT22;26635;-35.248;149.138;2023-05-14T10:05:57;10.40;91.50
39931;DHT22;26635;-35.248;149.138;2023-05-14T10:08:33;10.40;92.00
39931;DHT22;26635;-35.248;149.138;2023-05-14T10:11:07;10.40;91.80
39931;DHT22;26635;-35.248;149.138;2023-05-14T10:13:44;10.30;92.40
39931;DHT22;26635;-35.248;149.138;2023-05-14T10:16:51;10.30;91.80
39931;DHT22;26635;-35.248;149.138;2023-05-14T10:19:24;10.30;91.90
39931;DHT22;26635;-35.248;149.138;2023-05-14T10:22:04;10.40;92.20
39931;DHT22;26635;-35.248;149.138;2023-05-14T10:24:35;10.40;92.20
39931;DHT22;26635;-35.248;149.138;2023-05-14T10:27:07;10.40;92.20
39931;DHT22;26635;-35.248;149.138;2023-05-14T10:29:38;10.40;92.70
39931;DHT22;26635;-35.248;149.138;2023-05-14T10:32:08;10.40;92.30
39931;DHT22;26635;-35.248;149.138;2023-05-14T10:34:42;10.50;92.30
39931;DHT22;26635;-35.248;149.138;2023-05-14T10:37:15;10.40;92.30
39931;DHT22;26635;-35.248;149.138;2023-05-14T10:40:06;10.40;92.20
39931;DHT22;26635;-35.248;149.138;2023-05-14T10:42:38;10.40;92.10
39931;DHT22;26635;-35.248;149.138;2023-05-14T10:45:12;10.40;92.10
39931;DHT22;26635;-35.248;149.138;2023-05-14T10:47:45;10.40;91.90
39931;DHT22;26635;-35.248;149.138;2023-05-14T10:50:16;10.30;92.00
39931;DHT22;26635;-35.248;149.138;2023-05-14T10:52:47;10.30;92.10
39931;DHT22;26635;-35.248;149.138;2023-05-14T10:55:18;10.30;92.10
39931;DHT22;26635;-35.248;149.138;2023-05-14T10:57:49;10.30;92.30
39931;DHT22;26635;-35.248;149.138;2023-05-14T11:00:25;10.30;92.60
39931;DHT22;26635;-35.248;149.138;2023-05-14T11:02:56;10.30;93.10
39931;DHT22;26635;-35.248;149.138;2023-05-14T11:05:28;10.30;93.00
39931;DHT22;26635;-35.248;149.138;2023-05-14T11:08:03;10.30;93.00
39931;DHT22;26635;-35.248;149.138;2023-05-14T11:10:37;10.30;93.00
39931;DHT22;26635;-35.248;149.138;2023-05-14T11:13:09;10.30;92.80
39931;DHT22;26635;-35.248;149.138;2023-05-14T11:15:41;10.20;92.60
39931;DHT22;26635;-35.248;149.138;2023-05-14T11:18:35;10.30;92.50
39931;DHT22;26635;-35.248;149.138;2023-05-14T11:21:07;10.20;92.80
39931;DHT22;26635;-35.248;149.138;2023-05-14T11:23:37;10.10;92.60
39931;DHT22;26635;-35.248;149.138;2023-05-14T11:26:08;10.00;92.50
39931;DHT22;26635;-35.248;149.138;2023-05-14T11:28:38;10.00;92.50
39931;DHT22;26635;-35.248;149.138;2023-05-14T11:31:09;10.00;92.70
39931;DHT22;26635;-35.248;149.138;2023-05-14T11:33:40;10.00;93.00
39931;DHT22;26635;-35.248;149.138;2023-05-14T11:36:14;9.90;92.60
39931;DHT22;26635;-35.248;149.138;2023-05-14T11:38:47;9.90;92.70
39931;DHT22;26635;-35.248;149.138;2023-05-14T11:41:20;9.80;92.80
39931;DHT22;26635;-35.248;149.138;2023-05-14T11:43:51;9.80;92.90
39931;DHT22;26635;-35.248;149.138;2023-05-14T11:46:22;9.80;93.40
39931;DHT22;26635;-35.248;149.138;2023-05-14T11:48:54;9.70;93.10
39931;DHT22;26635;-35.248;149.138;2023-05-14T11:51:24;9.70;93.20
39931;DHT22;26635;-35.248;149.138;2023-05-14T11:53:55;9.70;93.00
39931;DHT22;26635;-35.248;149.138;2023-05-14T11:56:27;9.70;93.30
39931;DHT22;26635;-35.248;149.138;2023-05-14T11:58:58;9.70;93.60
39931;DHT22;26635;-35.248;149.138;2023-05-14T12:01:37;9.60;93.50
39931;DHT22;26635;-35.248;149.138;2023-05-14T12:04:09;9.50;93.30
39931;DHT22;26635;-35.248;149.138;2023-05-14T12:06:39;9.50;92.80
39931;DHT22;26635;-35.248;149.138;2023-05-14T12:09:12;9.50;93.30
39931;DHT22;26635;-35.248;149.138;2023-05-14T12:11:45;9.40;93.40
39931;DHT22;26635;-35.248;149.138;2023-05-14T12:14:21;9.40;93.20
39931;DHT22;26635;-35.248;149.138;2023-05-14T12:16:51;9.40;93.30
39931;DHT22;26635;-35.248;149.138;2023-05-14T12:19:22;9.40;93.70
39931;DHT22;26635;-35.248;149.138;2023-05-14T12:21:54;9.40;94.10
39931;DHT22;26635;-35.248;149.138;2023-05-14T12:24:25;9.30;93.90
39931;DHT22;26635;-35.248;149.138;2023-05-14T12:26:59;9.30;94.20
39931;DHT22;26635;-35.248;149.138;2023-05-14T12:29:33;9.30;94.30
39931;DHT22;26635;-35.248;149.138;2023-05-14T12:32:08;9.30;94.10
39931;DHT22;26635;-35.248;149.138;2023-05-14T12:34:39;9.30;93.70
39931;DHT22;26635;-35.248;149.138;2023-05-14T12:37:11;9.30;93.60
39931;DHT22;26635;-35.248;149.138;2023-05-14T12:39:42;9.30;93.90
39931;DHT22;26635;-35.248;149.138;2023-05-14T12:42:14;9.30;94.00
39931;DHT22;26635;-35.248;149.138;2023-05-14T12:44:45;9.30;94.40
39931;DHT22;26635;-35.248;149.138;2023-05-14T12:47:16;9.30;94.10
39931;DHT22;26635;-35.248;149.138;2023-05-14T12:49:47;9.30;94.10
39931;DHT22;26635;-35.248;149.138;2023-05-14T12:52:18;9.30;94.30
39931;DHT22;26635;-35.248;149.138;2023-05-14T12:55:08;9.20;94.30
39931;DHT22;26635;-35.248;149.138;2023-05-14T12:57:38;9.20;94.10
39931;DHT22;26635;-35.248;149.138;2023-05-14T13:00:09;9.20;94.30
39931;DHT22;26635;-35.248;149.138;2023-05-14T13:02:41;9.20;94.00
39931;DHT22;26635;-35.248;149.138;2023-05-14T13:05:12;9.20;94.10
39931;DHT22;26635;-35.248;149.138;2023-05-14T13:07:42;9.20;94.30
39931;DHT22;26635;-35.248;149.138;2023-05-14T13:10:12;9.20;94.30
39931;DHT22;26635;-35.248;149.138;2023-05-14T13:12:42;9.10;93.90
39931;DHT22;26635;-35.248;149.138;2023-05-14T13:15:13;9.10;94.20
39931;DHT22;26635;-35.248;149.138;2023-05-14T13:17:44;9.10;94.40
39931;DHT22;26635;-35.248;149.138;2023-05-14T13:20:15;9.10;94.70
39931;DHT22;26635;-35.248;149.138;2023-05-14T13:22:48;9.10;94.80
39931;DHT22;26635;-35.248;149.138;2023-05-14T13:25:18;9.20;94.60
39931;DHT22;26635;-35.248;149.138;2023-05-14T13:27:50;9.20;95.10
39931;DHT22;26635;-35.248;149.138;2023-05-14T13:30:20;9.30;95.20
39931;DHT22;26635;-35.248;149.138;2023-05-14T13:32:51;9.30;95.30
39931;DHT22;26635;-35.248;149.138;2023-05-14T13:35:21;9.40;95.40
39931;DHT22;26635;-35.248;149.138;2023-05-14T13:37:52;9.50;95.40
39931;DHT22;26635;-35.248;149.138;2023-05-14T13:40:22;9.50;95.80
39931;DHT22;26635;-35.248;149.138;2023-05-14T13:42:53;9.60;95.70
39931;DHT22;26635;-35.248;149.138;2023-05-14T13:45:23;9.70;95.80
39931;DHT22;26635;-35.248;149.138;2023-05-14T13:47:53;9.80;95.90
39931;DHT22;26635;-35.248;149.138;2023-05-14T13:50:25;9.90;95.90
39931;DHT22;26635;-35.248;149.138;2023-05-14T13:52:55;10.00;96.00
39931;DHT22;26635;-35.248;149.138;2023-05-14T13:55:25;10.10;95.90
39931;DHT22;26635;-35.248;149.138;2023-05-14T13:57:55;10.10;95.70
39931;DHT22;26635;-35.248;149.138;2023-05-14T14:00:27;10.20;96.10
39931;DHT22;26635;-35.248;149.138;2023-05-14T14:02:57;10.30;95.90
39931;DHT22;26635;-35.248;149.138;2023-05-14T14:05:28;10.30;95.60
39931;DHT22;26635;-35.248;149.138;2023-05-14T14:07:58;10.30;95.50
39931;DHT22;26635;-35.248;149.138;2023-05-14T14:10:49;10.30;95.40
39931;DHT22;26635;-35.248;149.138;2023-05-14T14:13:19;10.40;95.70
39931;DHT22;26635;-35.248;149.138;2023-05-14T14:15:51;10.30;95.20
39931;DHT22;26635;-35.248;149.138;2023-05-14T14:18:21;10.40;95.20
39931;DHT22;26635;-35.248;149.138;2023-05-14T14:20:51;10.40;95.20
39931;DHT22;26635;-35.248;149.138;2023-05-14T14:23:22;10.40;95.40
39931;DHT22;26635;-35.248;149.138;2023-05-14T14:25:52;10.50;95.70
39931;DHT22;26635;-35.248;149.138;2023-05-14T14:28:22;10.50;96.00
39931;DHT22;26635;-35.248;149.138;2023-05-14T14:30:53;10.60;96.10
39931;DHT22;26635;-35.248;149.138;2023-05-14T14:33:23;10.60;96.00
39931;DHT22;26635;-35.248;149.138;2023-05-14T14:35:54;10.70;96.00
39931;DHT22;26635;-35.248;149.138;2023-05-14T14:38:30;10.80;95.80
39931;DHT22;26635;-35.248;149.138;2023-05-14T14:41:00;10.80;95.60
39931;DHT22;26635;-35.248;149.138;2023-05-14T14:43:36;10.80;95.50
39931;DHT22;26635;-35.248;149.138;2023-05-14T14:46:08;10.80;95.30
39931;DHT22;26635;-35.248;149.138;2023-05-14T14:48:39;10.90;95.20
39931;DHT22;26635;-35.248;149.138;2023-05-14T14:51:10;10.90;95.00
39931;DHT22;26635;-35.248;149.138;2023-05-14T14:53:41;10.90;95.10
39931;DHT22;26635;-35.248;149.138;2023-05-14T14:56:11;10.90;94.80
39931;DHT22;26635;-35.248;149.138;2023-05-14T14:58:42;10.90;94.90
39931;DHT22;26635;-35.248;149.138;2023-05-14T15:01:13;10.90;94.90
39931;DHT22;26635;-35.248;149.138;2023-05-14T15:03:45;10.90;94.80
39931;DHT22;26635;-35.248;149.138;2023-05-14T15:06:16;10.90;95.00
39931;DHT22;26635;-35.248;149.138;2023-05-14T15:08:47;10.90;94.90
39931;DHT22;26635;-35.248;149.138;2023-05-14T15:11:17;10.90;94.90
39931;DHT22;26635;-35.248;149.138;2023-05-14T15:13:48;10.90;94.80
39931;DHT22;26635;-35.248;149.138;2023-05-14T15:16:18;10.90;94.80
39931;DHT22;26635;-35.248;149.138;2023-05-14T15:18:48;10.90;94.40
39931;DHT22;26635;-35.248;149.138;2023-05-14T15:21:18;10.90;94.40
39931;DHT22;26635;-35.248;149.138;2023-05-14T15:23:49;10.90;94.60
39931;DHT22;26635;-35.248;149.138;2023-05-14T15:26:19;10.90;94.30